createdAt,value
2022-11-12T00:00:06.037Z,0.50
2022-11-12T00:03:26.866Z,0.50
2022-11-12T00:06:47.622Z,0.60
2022-11-12T00:10:09.066Z,0.50
2022-11-12T00:13:29.825Z,0.45
2022-11-12T00:16:50.203Z,0.40
2022-11-12T00:20:11.021Z,0.40
2022-11-12T00:23:31.508Z,0.43
2022-11-12T00:26:51.767Z,0.47
2022-11-12T00:30:12.556Z,0.30
2022-11-12T00:33:33.030Z,0.43
2022-11-12T00:36:54.224Z,0.38
2022-11-12T00:40:15.448Z,0.52
2022-11-12T00:43:36.148Z,0.40
2022-11-12T00:46:57.241Z,0.60
2022-11-12T00:50:17.943Z,0.60
2022-11-12T00:53:38.422Z,0.50
2022-11-12T00:56:58.810Z,0.50
2022-11-12T01:00:20.861Z,0.40
2022-11-12T01:03:41.437Z,0.40
2022-11-12T01:07:02.358Z,1.00
2022-11-12T01:10:23.313Z,0.60
2022-11-12T01:13:45.428Z,0.50
2022-11-12T01:17:06.301Z,0.55
2022-11-12T01:20:26.577Z,0.52
2022-11-12T01:23:46.959Z,0.60
2022-11-12T01:27:07.525Z,0.50
2022-11-12T01:30:28.065Z,0.40
2022-11-12T01:33:50.488Z,0.50
2022-11-12T01:37:10.790Z,0.47
2022-11-12T01:40:32.883Z,0.47
2022-11-12T01:44:17.346Z,0.75
2022-11-12T01:47:38.093Z,0.65
2022-11-12T01:50:58.408Z,0.73
2022-11-12T01:54:19.230Z,0.90
2022-11-12T01:57:48.810Z,0.73
2022-11-12T02:01:09.133Z,0.95
2022-11-12T02:04:29.970Z,0.80
2022-11-12T02:07:50.583Z,1.00
2022-11-12T02:11:19.970Z,0.82
2022-11-12T02:14:40.384Z,1.00
2022-11-12T02:18:00.867Z,1.00
2022-11-12T02:21:23.334Z,1.02
2022-11-12T02:24:43.799Z,1.00
2022-11-12T02:28:07.156Z,0.80
2022-11-12T02:31:27.814Z,0.82
2022-11-12T02:34:48.380Z,0.70
2022-11-12T02:38:09.278Z,0.80
2022-11-12T02:41:29.877Z,0.70
2022-11-12T02:44:50.133Z,0.70
2022-11-12T02:48:13.955Z,0.70
2022-11-12T02:51:37.042Z,0.60
2022-11-12T02:54:57.490Z,0.70
2022-11-12T02:58:17.803Z,0.63
2022-11-12T03:01:38.212Z,0.60
2022-11-12T03:04:58.585Z,0.60
2022-11-12T03:08:18.926Z,0.57
2022-11-12T03:11:39.239Z,0.70
2022-11-12T03:15:00.067Z,0.80
2022-11-12T03:18:20.633Z,0.70
2022-11-12T03:21:41.226Z,0.90
2022-11-12T03:25:01.665Z,0.90
2022-11-12T03:28:21.988Z,0.80
2022-11-12T03:31:42.489Z,1.00
2022-11-12T03:35:03.045Z,1.10
2022-11-12T03:38:23.628Z,0.90
2022-11-12T03:41:44.667Z,1.45
2022-11-12T03:45:06.223Z,1.10
2022-11-12T03:48:26.908Z,0.90
2022-11-12T03:51:47.576Z,0.90
2022-11-12T03:55:08.545Z,1.05
2022-11-12T03:58:29.225Z,0.90
2022-11-12T04:01:49.864Z,1.00
2022-11-12T04:05:29.318Z,1.10
2022-11-12T04:08:50.144Z,1.08
2022-11-12T04:12:29.411Z,1.58
2022-11-12T04:16:10.126Z,1.10
2022-11-12T04:19:49.114Z,0.90
2022-11-12T04:23:10.014Z,0.95
2022-11-12T04:26:30.416Z,1.00
2022-11-12T04:30:09.515Z,1.20
2022-11-12T04:33:30.160Z,1.08
2022-11-12T04:36:51.181Z,1.70
2022-11-12T04:40:35.239Z,1.00
2022-11-12T04:44:14.640Z,1.05
2022-11-12T04:47:38.198Z,1.67
2022-11-12T04:51:28.503Z,2.05
2022-11-12T04:54:49.136Z,2.00
2022-11-12T04:58:09.434Z,2.50
2022-11-12T05:01:29.807Z,3.20
2022-11-12T05:04:50.297Z,2.88
2022-11-12T05:08:10.698Z,2.97
2022-11-12T05:11:31.104Z,3.80
2022-11-12T05:14:51.524Z,3.60
2022-11-12T05:18:11.824Z,3.85
2022-11-12T05:21:50.726Z,4.28
2022-11-12T05:25:11.494Z,4.63
2022-11-12T05:28:36.941Z,4.70
2022-11-12T05:31:57.529Z,5.05
2022-11-12T05:35:17.995Z,5.60
2022-11-12T05:38:39.223Z,4.75
2022-11-12T05:42:14.054Z,5.15
2022-11-12T05:45:34.809Z,5.25
2022-11-12T05:48:55.165Z,5.00
2022-11-12T05:52:15.725Z,5.43
2022-11-12T05:55:37.225Z,4.80
2022-11-12T05:58:58.273Z,4.88
2022-11-12T06:02:18.699Z,4.95
2022-11-12T06:05:39.128Z,5.20
2022-11-12T06:08:59.468Z,5.00
2022-11-12T06:12:19.950Z,5.40
2022-11-12T06:15:40.438Z,5.07
2022-11-12T06:19:01.106Z,5.25
2022-11-12T06:22:21.567Z,5.18
2022-11-12T06:25:41.937Z,5.07
2022-11-12T06:29:02.292Z,5.18
2022-11-12T06:32:22.629Z,5.03
2022-11-12T06:35:43.397Z,5.10
2022-11-12T06:39:04.030Z,5.53
2022-11-12T06:42:24.502Z,5.60
2022-11-12T06:45:44.841Z,5.53
2022-11-12T06:49:05.156Z,5.50
2022-11-12T06:52:25.621Z,6.32
2022-11-12T06:55:46.268Z,6.45
2022-11-12T06:59:06.638Z,5.80
2022-11-12T07:02:27.090Z,5.68
2022-11-12T07:05:47.541Z,7.07
2022-11-12T07:09:08.073Z,7.00
2022-11-12T07:12:29.461Z,7.00
2022-11-12T07:15:50.272Z,8.93
2022-11-12T07:19:11.636Z,9.70
2022-11-12T07:22:34.495Z,7.85
2022-11-12T07:26:01.881Z,7.68
2022-11-12T07:29:42.585Z,9.23
2022-11-12T07:33:03.212Z,7.72
2022-11-12T07:36:23.669Z,16.23
2022-11-12T07:39:44.198Z,15.98
2022-11-12T07:43:04.591Z,12.43
2022-11-12T07:46:26.873Z,22.67
2022-11-12T07:49:47.353Z,45.03
2022-11-12T07:53:07.626Z,41.28
2022-11-12T07:56:28.740Z,24.33
2022-11-12T07:59:49.254Z,11.23
2022-11-12T08:03:09.739Z,9.45
2022-11-12T08:06:30.749Z,9.27
2022-11-12T08:09:51.222Z,13.35
2022-11-12T08:13:12.140Z,10.50
2022-11-12T08:16:32.681Z,7.40
2022-11-12T08:19:55.328Z,8.63
2022-11-12T08:23:15.615Z,8.60
2022-11-12T08:26:36.108Z,11.05
2022-11-12T08:29:56.499Z,8.85
2022-11-12T08:33:16.870Z,10.55
2022-11-12T08:36:37.458Z,8.68
2022-11-12T08:39:58.226Z,8.48
2022-11-12T08:43:18.584Z,7.57
2022-11-12T08:46:39.107Z,7.95
2022-11-12T08:49:59.530Z,7.40
2022-11-12T08:53:21.508Z,8.95
2022-11-12T08:56:42.076Z,8.82
2022-11-12T09:00:02.764Z,10.68
2022-11-12T09:03:25.180Z,8.88
2022-11-12T09:06:49.863Z,7.65
2022-11-12T09:10:13.473Z,7.45
2022-11-12T09:13:34.399Z,7.80
2022-11-12T09:16:55.304Z,7.13
2022-11-12T09:20:15.838Z,7.03
2022-11-12T09:23:36.769Z,6.45
2022-11-12T09:26:57.095Z,7.28
2022-11-12T09:30:17.439Z,7.28
2022-11-12T09:33:37.836Z,11.65
2022-11-12T09:36:58.241Z,9.10
2022-11-12T09:40:19.473Z,8.60
2022-11-12T09:44:06.064Z,10.88
2022-11-12T09:47:38.681Z,9.50
2022-11-12T09:51:26.093Z,7.82
2022-11-12T09:54:47.046Z,8.07
2022-11-12T09:58:14.543Z,7.45
2022-11-12T10:01:55.319Z,8.73
2022-11-12T10:05:29.123Z,10.52
2022-11-12T10:09:05.451Z,9.00
2022-11-12T10:12:48.893Z,9.52
2022-11-12T10:16:43.569Z,8.20
2022-11-12T10:20:25.805Z,6.35
2022-11-12T10:23:50.735Z,5.50
2022-11-12T10:27:23.077Z,6.30
2022-11-12T10:30:43.353Z,5.65
2022-11-12T10:34:23.785Z,6.25
2022-11-12T10:38:02.763Z,6.85
2022-11-12T10:41:32.009Z,5.68
2022-11-12T10:44:52.708Z,6.15
2022-11-12T10:48:33.501Z,5.93
2022-11-12T10:51:59.153Z,6.20
2022-11-12T10:55:22.683Z,5.88
2022-11-12T10:58:43.049Z,6.20
2022-11-12T11:02:03.597Z,5.50
2022-11-12T11:05:38.241Z,5.07
2022-11-12T11:09:13.842Z,5.60
2022-11-12T11:12:34.728Z,5.65
2022-11-12T11:16:07.006Z,5.70
2022-11-12T11:19:41.591Z,5.35
2022-11-12T11:23:26.784Z,5.72
2022-11-12T11:27:23.281Z,5.85
2022-11-12T11:31:21.462Z,5.85
2022-11-12T11:34:51.717Z,5.68
2022-11-12T11:38:39.639Z,5.72
2022-11-12T11:42:18.286Z,6.70
2022-11-12T11:46:12.092Z,6.35
2022-11-12T11:50:08.549Z,7.35
2022-11-12T11:53:44.156Z,6.47
2022-11-12T11:57:16.001Z,6.68
2022-11-12T12:00:46.070Z,6.80
2022-11-12T12:04:47.794Z,7.40
2022-11-12T12:09:01.463Z,6.30
2022-11-12T12:12:52.878Z,5.75
2022-11-12T12:16:38.209Z,5.78
2022-11-12T12:20:30.303Z,5.43
2022-11-12T12:24:18.888Z,6.05
2022-11-12T12:27:54.865Z,5.80
2022-11-12T12:31:18.851Z,5.65
2022-11-12T12:34:43.670Z,5.18
2022-11-12T12:38:35.825Z,5.18
2022-11-12T12:42:10.056Z,5.28
2022-11-12T12:45:38.599Z,5.20
2022-11-12T12:52:19.404Z,5.05
2022-11-12T12:55:53.840Z,15.60
2022-11-12T12:59:22.871Z,6.35
2022-11-12T13:02:43.080Z,7.38
2022-11-12T13:06:27.573Z,4.70
2022-11-12T13:09:48.084Z,4.47
2022-11-12T13:13:17.684Z,3.80
2022-11-12T13:16:51.094Z,3.83
2022-11-12T13:20:32.971Z,3.80
2022-11-12T13:24:07.871Z,3.65
2022-11-12T13:27:43.468Z,8.88
2022-11-12T13:31:04.353Z,4.20
2022-11-12T13:34:31.474Z,4.53
2022-11-12T13:38:11.962Z,5.53
2022-11-12T13:41:58.620Z,4.78
2022-11-12T13:45:26.185Z,6.03
2022-11-12T13:49:03.521Z,1.87
2022-11-12T13:52:23.935Z,1.90
2022-11-12T13:55:52.496Z,2.00
2022-11-12T13:59:18.654Z,1.80
2022-11-12T14:02:41.665Z,1.83
2022-11-12T14:06:14.249Z,1.60
2022-11-12T14:09:34.701Z,1.90
2022-11-12T14:13:07.119Z,2.90
2022-11-12T14:16:33.358Z,2.03
2022-11-12T14:20:30.614Z,1.90
2022-11-12T14:23:51.234Z,2.00
2022-11-12T14:27:31.281Z,1.98
2022-11-12T14:30:51.987Z,1.48
2022-11-12T14:34:32.970Z,1.50
2022-11-12T14:38:19.205Z,1.83
2022-11-12T14:41:41.492Z,2.22
2022-11-12T14:45:02.488Z,2.63
2022-11-12T14:48:22.970Z,1.88
2022-11-12T14:52:17.146Z,2.42
2022-11-12T14:55:38.049Z,2.53
2022-11-12T14:58:58.469Z,3.35
2022-11-12T15:02:50.338Z,3.40
2022-11-12T15:06:13.226Z,3.88
2022-11-12T15:09:38.497Z,2.80
2022-11-12T15:13:19.326Z,3.15
2022-11-12T15:16:39.841Z,6.60
2022-11-12T15:20:14.009Z,5.18
2022-11-12T15:23:34.216Z,7.30
2022-11-12T15:26:55.136Z,3.70
2022-11-12T15:30:25.821Z,4.10
2022-11-12T15:33:46.504Z,3.35
2022-11-12T15:37:33.517Z,3.38
2022-11-12T15:40:57.572Z,2.95
2022-11-12T15:44:18.208Z,3.70
2022-11-12T15:47:38.548Z,4.43
2022-11-12T15:50:58.856Z,4.28
2022-11-12T15:54:19.198Z,5.38
2022-11-12T15:57:48.772Z,4.22
2022-11-12T16:01:11.125Z,3.70
2022-11-12T16:04:31.877Z,4.18
2022-11-12T16:07:52.353Z,9.48
2022-11-12T16:11:32.938Z,4.63
2022-11-12T16:14:53.316Z,4.15
2022-11-12T16:18:13.746Z,4.88
2022-11-12T16:21:34.210Z,4.95
2022-11-12T16:24:54.543Z,5.18
2022-11-12T16:28:18.853Z,5.00
2022-11-12T16:31:43.017Z,6.75
2022-11-12T16:35:03.484Z,8.63
2022-11-12T16:38:25.835Z,5.15
2022-11-12T16:41:46.450Z,4.90
2022-11-12T16:45:07.313Z,5.20
2022-11-12T16:48:27.777Z,6.20
2022-11-12T16:51:49.018Z,7.85
2022-11-12T16:55:10.217Z,7.97
2022-11-12T16:58:30.828Z,7.13
2022-11-12T17:01:51.199Z,23.35
2022-11-12T17:05:18.034Z,10.15
2022-11-12T17:08:38.622Z,21.02
2022-11-12T17:11:59.406Z,10.13
2022-11-12T17:15:20.068Z,7.38
2022-11-12T17:18:40.567Z,17.23
2022-11-12T17:22:00.981Z,10.52
2022-11-12T17:25:21.491Z,10.73
2022-11-12T17:28:41.883Z,9.35
2022-11-12T17:32:02.690Z,11.48
2022-11-12T17:35:23.242Z,8.90
2022-11-12T17:38:44.511Z,8.40
2022-11-12T17:42:05.299Z,8.93
2022-11-12T17:45:25.762Z,11.57
2022-11-12T17:48:46.154Z,9.80
2022-11-12T17:52:06.602Z,9.63
2022-11-12T17:55:26.951Z,11.27
2022-11-12T17:58:48.947Z,11.52
2022-11-12T18:02:12.205Z,9.50
2022-11-12T18:05:32.493Z,10.32
2022-11-12T18:08:57.316Z,9.30
2022-11-12T18:12:18.063Z,9.75
2022-11-12T18:15:38.742Z,8.88
2022-11-12T18:18:59.363Z,9.98
2022-11-12T18:22:20.702Z,9.35
2022-11-12T18:25:41.080Z,10.30
2022-11-12T18:29:01.545Z,9.57
2022-11-12T18:32:21.853Z,13.00
2022-11-12T18:35:42.382Z,23.45
2022-11-12T18:39:04.280Z,22.45
2022-11-12T18:42:25.048Z,12.82
2022-11-12T18:45:45.274Z,9.43
2022-11-12T18:49:05.795Z,15.90
2022-11-12T18:52:26.642Z,16.08
2022-11-12T18:55:47.069Z,39.28
2022-11-12T18:59:07.651Z,25.48
2022-11-12T19:02:28.140Z,24.10
2022-11-12T19:05:48.547Z,12.40
2022-11-12T19:09:11.802Z,31.20
2022-11-12T19:12:32.368Z,17.23
2022-11-12T19:15:52.888Z,21.45
2022-11-12T19:19:15.180Z,26.08
2022-11-12T19:22:36.004Z,11.38
2022-11-12T19:25:56.763Z,12.45
2022-11-12T19:29:17.402Z,11.65
2022-11-12T19:32:37.735Z,11.18
2022-11-12T19:36:01.003Z,11.70
2022-11-12T19:39:25.957Z,12.77
2022-11-12T19:42:48.065Z,13.32
2022-11-12T19:46:09.634Z,12.85
2022-11-12T19:49:30.282Z,14.05
2022-11-12T19:52:54.405Z,12.68
2022-11-12T19:56:17.202Z,21.75
2022-11-12T19:59:40.087Z,25.27
2022-11-12T20:03:00.962Z,16.55
2022-11-12T20:06:25.569Z,27.08
2022-11-12T20:09:46.257Z,25.95
2022-11-12T20:13:07.311Z,13.75
2022-11-12T20:16:28.049Z,13.68
2022-11-12T20:19:48.432Z,13.35
2022-11-12T20:23:08.865Z,16.25
2022-11-12T20:26:29.437Z,14.68
2022-11-12T20:29:50.072Z,19.02
2022-11-12T20:33:12.881Z,18.92
2022-11-12T20:36:33.633Z,12.48
2022-11-12T20:39:54.221Z,14.32
2022-11-12T20:43:15.476Z,14.48
2022-11-12T20:46:35.901Z,13.70
2022-11-12T20:49:56.362Z,13.82
2022-11-12T20:53:16.698Z,12.98
2022-11-12T20:56:37.405Z,19.17
2022-11-12T20:59:58.254Z,14.32
2022-11-12T21:03:18.503Z,12.27
2022-11-12T21:06:39.047Z,16.08
2022-11-12T21:09:59.894Z,12.70
2022-11-12T21:13:21.745Z,14.25
2022-11-12T21:16:42.278Z,13.55
2022-11-12T21:20:02.679Z,13.30
2022-11-12T21:23:23.894Z,13.52
2022-11-12T21:26:44.630Z,14.73
2022-11-12T21:30:05.862Z,14.73
2022-11-12T21:33:26.387Z,13.63
2022-11-12T21:36:47.331Z,14.07
2022-11-12T21:40:08.838Z,14.10
2022-11-12T21:43:29.672Z,14.95
2022-11-12T21:46:50.123Z,13.63
2022-11-12T21:50:10.767Z,14.93
2022-11-12T21:53:31.161Z,14.50
2022-11-12T21:56:51.550Z,15.05
2022-11-12T22:00:40.462Z,14.75
2022-11-12T22:03:54.625Z,15.63
2022-11-12T22:07:15.013Z,14.27
2022-11-12T22:10:35.955Z,15.60
2022-11-12T22:13:56.604Z,15.70
2022-11-12T22:17:17.109Z,15.98
2022-11-12T22:20:37.506Z,15.23
2022-11-12T22:23:58.128Z,15.90
2022-11-12T22:27:18.847Z,16.55
2022-11-12T22:30:39.206Z,14.90
2022-11-12T22:34:00.754Z,15.48
2022-11-12T22:37:21.620Z,15.65
2022-11-12T22:40:46.961Z,13.63
2022-11-12T22:44:07.517Z,15.43
2022-11-12T22:47:28.019Z,13.90
2022-11-12T22:50:48.555Z,13.95
2022-11-12T22:54:10.242Z,16.42
2022-11-12T22:57:30.867Z,14.55
2022-11-12T23:00:51.220Z,13.27
2022-11-12T23:04:11.781Z,12.85
2022-11-12T23:07:32.143Z,13.73
2022-11-12T23:10:52.624Z,15.38
2022-11-12T23:14:13.049Z,15.80
2022-11-12T23:17:33.391Z,14.00
2022-11-12T23:20:53.807Z,13.80
2022-11-12T23:24:14.358Z,16.65
2022-11-12T23:27:34.711Z,17.48
2022-11-12T23:30:55.101Z,17.73
2022-11-12T23:34:15.914Z,16.15
2022-11-12T23:37:36.417Z,21.55
2022-11-12T23:40:57.056Z,17.05
2022-11-12T23:44:17.903Z,19.75
2022-11-12T23:47:38.489Z,19.27
2022-11-12T23:51:07.880Z,19.40
2022-11-12T23:54:28.236Z,15.98
2022-11-12T23:57:48.766Z,16.33
